Time,TemperatureF,DewpointF,PressureIn,WindDirection,WindDirectionDegrees,WindSpeedMPH,WindSpeedGustMPH,Humidity,HourlyPrecipIn,Conditions,Clouds,dailyrainin,SoftwareType,DateUTC
2013-02-21 00:04:00,46.8,40.6,30.06,West,268,0.0,6.0,79,0.00,,,0.00,meteohub,2013-02-21 08:04:00,
2013-02-21 00:10:00,46.4,40.3,30.06,West,269,0.0,5.0,79,0.00,,,0.00,meteohub,2013-02-21 08:10:00,
2013-02-21 00:15:00,46.0,39.9,30.05,SSE,159,1.0,4.0,79,0.00,,,0.00,meteohub,2013-02-21 08:15:00,
2013-02-21 00:20:00,45.7,39.9,30.05,SSE,159,0.0,1.0,80,0.00,,,0.00,meteohub,2013-02-21 08:20:00,
2013-02-21 00:25:00,45.3,39.6,30.05,SSE,159,0.0,1.0,80,0.00,,,0.00,meteohub,2013-02-21 08:25:00,
2013-02-21 00:30:00,45.1,39.4,30.05,NW,318,0.0,1.0,80,0.00,,,0.00,meteohub,2013-02-21 08:30:00,
2013-02-21 00:35:00,45.0,39.2,30.06,NW,319,0.0,1.0,80,0.00,,,0.00,meteohub,2013-02-21 08:35:00,
2013-02-21 00:40:00,44.8,39.4,30.06,NNW,334,0.0,1.0,81,0.00,,,0.00,meteohub,2013-02-21 08:40:00,
2013-02-21 00:45:00,44.8,39.4,30.06,WNW,290,0.0,1.0,81,0.00,,,0.00,meteohub,2013-02-21 08:45:00,
2013-02-21 00:50:00,44.6,39.2,30.06,WNW,290,0.0,1.0,81,0.00,,,0.00,meteohub,2013-02-21 08:50:00,
2013-02-21 00:55:00,44.4,39.2,30.06,SW,224,0.0,1.0,82,0.00,,,0.00,meteohub,2013-02-21 08:55:00,
2013-02-21 01:00:00,44.4,39.0,30.06,NNW,347,0.0,2.0,81,0.00,,,0.00,meteohub,2013-02-21 09:00:00,
2013-02-21 01:06:00,44.4,39.0,30.06,NNE,15,0.0,2.0,81,0.00,,,0.00,meteohub,2013-02-21 09:06:00,
2013-02-21 01:11:00,44.2,38.8,30.06,NW,309,0.0,2.0,81,0.00,,,0.00,meteohub,2013-02-21 09:11:00,
2013-02-21 01:16:00,44.4,39.0,30.06,NNW,345,0.0,2.0,81,0.00,,,0.00,meteohub,2013-02-21 09:16:00,
2013-02-21 01:21:00,44.4,38.7,30.06,NNW,342,0.0,2.0,80,0.00,,,0.00,meteohub,2013-02-21 09:21:00,
2013-02-21 01:26:00,44.2,38.5,30.06,NNW,346,0.0,2.0,80,0.00,,,0.00,meteohub,2013-02-21 09:26:00,
2013-02-21 01:31:00,44.2,38.5,30.06,SW,222,0.0,1.0,80,0.00,,,0.00,meteohub,2013-02-21 09:31:00,
2013-02-21 01:36:00,44.2,38.5,30.06,SSW,209,0.0,1.0,80,0.00,,,0.00,meteohub,2013-02-21 09:36:00,
2013-02-21 01:41:00,44.1,37.9,30.06,SSW,208,0.0,1.0,79,0.00,,,0.00,meteohub,2013-02-21 09:41:00,
2013-02-21 01:46:00,43.9,38.1,30.06,SSW,208,0.0,1.0,80,0.00,,,0.00,meteohub,2013-02-21 09:46:00,
2013-02-21 01:51:00,43.5,37.8,30.06,SSW,208,0.0,1.0,80,0.00,,,0.00,meteohub,2013-02-21 09:51:00,
2013-02-21 01:56:00,43.3,37.6,30.06,SSW,208,0.0,1.0,80,0.00,,,0.00,meteohub,2013-02-21 09:56:00,
2013-02-21 02:02:00,42.8,37.4,30.06,SSW,208,0.0,1.0,81,0.00,,,0.00,meteohub,2013-02-21 10:02:00,
2013-02-21 02:07:00,42.6,37.6,30.06,NW,312,0.0,1.0,82,0.00,,,0.00,meteohub,2013-02-21 10:07:00,
2013-02-21 02:12:00,43.0,37.6,30.06,NW,311,0.0,1.0,81,0.00,,,0.00,meteohub,2013-02-21 10:12:00,
2013-02-21 02:17:00,43.0,37.2,30.06,NW,312,0.0,1.0,80,0.00,,,0.00,meteohub,2013-02-21 10:17:00,
2013-02-21 02:22:00,42.6,37.2,30.06,South,174,0.0,0.0,81,0.00,,,0.00,meteohub,2013-02-21 10:22:00,
2013-02-21 02:27:00,42.4,37.0,30.06,South,191,0.0,1.0,81,0.00,,,0.00,meteohub,2013-02-21 10:27:00,
2013-02-21 02:32:00,42.3,37.2,30.06,SSW,194,0.0,1.0,82,0.00,,,0.00,meteohub,2013-02-21 10:32:00,
2013-02-21 02:37:00,42.1,37.0,30.05,SSW,194,0.0,1.0,82,0.00,,,0.00,meteohub,2013-02-21 10:37:00,
2013-02-21 02:42:00,41.7,36.9,30.05,SSW,195,0.0,1.0,83,0.00,,,0.00,meteohub,2013-02-21 10:42:00,
2013-02-21 02:47:00,41.7,36.9,30.05,SSW,194,1.0,1.0,83,0.00,,,0.00,meteohub,2013-02-21 10:47:00,
2013-02-21 02:52:00,41.9,36.9,30.05,SSW,194,0.0,1.0,82,0.00,,,0.00,meteohub,2013-02-21 10:52:00,
2013-02-21 02:57:00,41.7,36.7,30.05,South,190,0.0,1.0,82,0.00,,,0.00,meteohub,2013-02-21 10:57:00,
2013-02-21 03:02:00,41.5,36.7,30.06,South,191,0.0,1.0,83,0.00,,,0.00,meteohub,2013-02-21 11:02:00,
2013-02-21 03:07:00,41.7,36.9,30.06,NW,307,0.0,1.0,83,0.00,,,0.00,meteohub,2013-02-21 11:07:00,
2013-02-21 03:12:00,42.1,37.0,30.06,NNW,340,0.0,1.0,82,0.00,,,0.00,meteohub,2013-02-21 11:12:00,
2013-02-21 03:17:00,41.7,36.9,30.06,North,359,0.0,1.0,83,0.00,,,0.00,meteohub,2013-02-21 11:17:00,
2013-02-21 03:22:00,41.7,36.9,30.06,NNW,348,2.0,2.0,83,0.00,,,0.00,meteohub,2013-02-21 11:22:00,
2013-02-21 03:27:00,41.4,36.9,30.05,WSW,254,0.0,2.0,84,0.00,,,0.00,meteohub,2013-02-21 11:27:00,
2013-02-21 03:32:00,41.4,36.9,30.05,NW,312,1.0,2.0,84,0.00,,,0.00,meteohub,2013-02-21 11:32:00,
2013-02-21 03:37:00,41.5,37.0,30.05,North,359,2.0,2.0,84,0.00,,,0.00,meteohub,2013-02-21 11:37:00,
2013-02-21 03:42:00,41.5,37.0,30.05,North,359,0.0,2.0,84,0.00,,,0.00,meteohub,2013-02-21 11:42:00,
2013-02-21 03:47:00,41.4,36.9,30.05,WSW,252,0.0,2.0,84,0.00,,,0.00,meteohub,2013-02-21 11:47:00,
2013-02-21 03:52:00,41.4,37.2,30.05,WNW,294,0.0,2.0,85,0.00,,,0.00,meteohub,2013-02-21 11:52:00,
2013-02-21 03:57:00,41.4,36.9,30.05,North,350,0.0,2.0,84,0.00,,,0.00,meteohub,2013-02-21 11:57:00,
2013-02-21 04:02:00,41.2,36.7,30.06,North,350,0.0,2.0,84,0.00,,,0.00,meteohub,2013-02-21 12:02:00,
2013-02-21 04:07:00,41.2,36.7,30.05,North,349,0.0,2.0,84,0.00,,,0.00,meteohub,2013-02-21 12:07:00,
2013-02-21 04:12:00,41.2,37.0,30.06,North,350,0.0,1.0,85,0.00,,,0.00,meteohub,2013-02-21 12:12:00,
2013-02-21 04:17:00,40.8,36.7,30.06,North,349,0.0,1.0,85,0.00,,,0.00,meteohub,2013-02-21 12:17:00,
2013-02-21 04:22:00,41.0,36.9,30.06,NNW,332,0.0,1.0,85,0.00,,,0.00,meteohub,2013-02-21 12:22:00,
2013-02-21 04:27:00,41.0,36.9,30.06,South,191,0.0,2.0,85,0.00,,,0.00,meteohub,2013-02-21 12:27:00,
2013-02-21 04:32:00,41.2,37.4,30.06,WSW,241,0.0,2.0,86,0.00,,,0.00,meteohub,2013-02-21 12:32:00,
2013-02-21 04:37:00,41.5,37.4,30.06,NW,314,0.0,2.0,85,0.00,,,0.00,meteohub,2013-02-21 12:37:00,
2013-02-21 04:42:00,41.4,37.2,30.06,NW,314,0.0,2.0,85,0.00,,,0.00,meteohub,2013-02-21 12:42:00,
2013-02-21 04:47:00,41.4,37.2,30.06,South,191,0.0,2.0,85,0.00,,,0.00,meteohub,2013-02-21 12:47:00,
2013-02-21 04:52:00,41.5,37.6,30.06,SSW,193,1.0,2.0,86,0.00,,,0.00,meteohub,2013-02-21 12:52:00,
2013-02-21 04:57:00,42.1,37.6,30.06,SSE,156,0.0,2.0,84,0.00,,,0.00,meteohub,2013-02-21 12:57:00,
2013-02-21 05:02:00,41.7,37.2,30.06,NW,318,0.0,2.0,84,0.00,,,0.00,meteohub,2013-02-21 13:02:00,
2013-02-21 05:07:00,41.7,37.6,30.06,NNW,343,0.0,2.0,85,0.00,,,0.00,meteohub,2013-02-21 13:07:00,
2013-02-21 05:12:00,41.7,37.6,30.07,SSE,153,1.0,3.0,85,0.00,,,0.00,meteohub,2013-02-21 13:12:00,
2013-02-21 05:17:00,43.0,39.0,30.07,East,96,2.0,3.0,86,0.00,,,0.00,meteohub,2013-02-21 13:17:00,
2013-02-21 05:22:00,44.1,38.8,30.07,East,91,4.0,6.0,82,0.00,,,0.00,meteohub,2013-02-21 13:22:00,
2013-02-21 05:27:00,45.0,39.6,30.08,NNW,338,6.0,6.0,81,0.00,,,0.00,meteohub,2013-02-21 13:27:00,
2013-02-21 05:32:00,45.5,39.4,30.06,NW,316,3.0,11.0,79,0.00,,,0.00,meteohub,2013-02-21 13:32:00,
2013-02-21 05:37:00,45.7,39.6,30.08,NE,34,3.0,11.0,79,0.00,,,0.00,meteohub,2013-02-21 13:37:00,
2013-02-21 05:42:00,45.5,39.4,30.08,East,86,2.0,11.0,79,0.00,,,0.00,meteohub,2013-02-21 13:42:00,
2013-02-21 05:47:00,45.5,39.4,30.08,NNE,33,2.0,7.0,79,0.00,,,0.00,meteohub,2013-02-21 13:47:00,
2013-02-21 05:52:00,45.7,39.2,30.08,East,101,3.0,7.0,78,0.00,,,0.00,meteohub,2013-02-21 13:52:00,
2013-02-21 05:57:00,45.5,39.0,30.08,SW,215,0.0,5.0,78,0.00,,,0.00,meteohub,2013-02-21 13:57:00,
2013-02-21 06:02:00,45.3,38.8,30.08,East,96,0.0,5.0,78,0.00,,,0.00,meteohub,2013-02-21 14:02:00,
2013-02-21 06:07:00,45.1,38.3,30.08,SE,124,1.0,3.0,77,0.00,,,0.00,meteohub,2013-02-21 14:07:00,
2013-02-21 06:12:00,45.3,38.5,30.08,NNE,33,2.0,5.0,77,0.00,,,0.00,meteohub,2013-02-21 14:12:00,
2013-02-21 06:17:00,45.1,38.7,30.09,SW,229,1.0,5.0,78,0.00,,,0.00,meteohub,2013-02-21 14:17:00,
2013-02-21 06:22:00,45.1,38.3,30.09,ESE,107,1.0,5.0,77,0.00,,,0.00,meteohub,2013-02-21 14:22:00,
2013-02-21 06:27:00,45.3,38.5,30.09,North,352,0.0,5.0,77,0.00,,,0.00,meteohub,2013-02-21 14:27:00,
2013-02-21 06:32:00,45.3,38.1,30.09,East,98,2.0,5.0,76,0.00,,,0.00,meteohub,2013-02-21 14:32:00,
2013-02-21 06:37:00,45.3,38.1,30.09,East,93,0.0,5.0,76,0.00,,,0.00,meteohub,2013-02-21 14:37:00,
2013-02-21 06:42:00,45.1,38.7,30.09,East,85,0.0,5.0,78,0.00,,,0.00,meteohub,2013-02-21 14:42:00,
2013-02-21 06:47:00,44.8,38.3,30.09,NE,44,1.0,4.0,78,0.00,,,0.00,meteohub,2013-02-21 14:47:00,
2013-02-21 06:52:00,44.4,37.9,30.09,NNE,25,1.0,3.0,78,0.00,,,0.00,meteohub,2013-02-21 14:52:00,
2013-02-21 06:57:00,44.4,38.3,30.09,North,354,1.0,2.0,79,0.00,,,0.00,meteohub,2013-02-21 14:57:00,
2013-02-21 07:02:00,44.4,37.9,30.09,NNW,342,0.0,3.0,78,0.00,,,0.00,meteohub,2013-02-21 15:02:00,
2013-02-21 07:07:00,44.4,38.3,30.09,NNE,12,2.0,4.0,79,0.00,,,0.00,meteohub,2013-02-21 15:07:00,
2013-02-21 07:12:00,44.6,38.5,30.09,North,4,1.0,4.0,79,0.00,,,0.00,meteohub,2013-02-21 15:12:00,
2013-02-21 07:17:00,44.8,38.3,30.09,NNE,19,2.0,5.0,78,0.00,,,0.00,meteohub,2013-02-21 15:17:00,
2013-02-21 07:22:00,44.8,38.3,30.10,North,349,0.0,5.0,78,0.00,,,0.00,meteohub,2013-02-21 15:22:00,
2013-02-21 07:27:00,44.2,38.1,30.10,North,350,1.0,5.0,79,0.00,,,0.00,meteohub,2013-02-21 15:27:00,
2013-02-21 07:32:00,44.1,38.3,30.10,NNE,29,2.0,3.0,80,0.00,,,0.00,meteohub,2013-02-21 15:32:00,
2013-02-21 07:37:00,44.8,38.7,30.10,North,5,1.0,3.0,79,0.00,,,0.00,meteohub,2013-02-21 15:37:00,
2013-02-21 07:42:00,45.3,38.8,30.11,NNE,26,0.0,5.0,78,0.00,,,0.00,meteohub,2013-02-21 15:42:00,
2013-02-21 07:47:00,45.9,39.0,30.11,NNW,332,0.0,5.0,77,0.00,,,0.00,meteohub,2013-02-21 15:47:00,
2013-02-21 07:52:00,46.0,38.5,30.11,NW,324,1.0,4.0,75,0.00,,,0.00,meteohub,2013-02-21 15:52:00,
2013-02-21 07:57:00,46.4,38.8,30.11,North,8,2.0,3.0,75,0.00,,,0.00,meteohub,2013-02-21 15:57:00,
2013-02-21 08:02:00,46.8,38.8,30.11,North,5,2.0,5.0,74,0.00,,,0.00,meteohub,2013-02-21 16:02:00,
2013-02-21 08:07:00,46.9,39.0,30.12,ENE,78,2.0,5.0,74,0.00,,,0.00,meteohub,2013-02-21 16:07:00,
2013-02-21 08:12:00,47.1,38.8,30.12,SE,131,1.0,5.0,73,0.00,,,0.00,meteohub,2013-02-21 16:12:00,
2013-02-21 08:17:00,47.5,39.2,30.12,East,82,1.0,5.0,73,0.00,,,0.00,meteohub,2013-02-21 16:17:00,
2013-02-21 08:22:00,47.7,39.0,30.12,East,98,1.0,5.0,72,0.00,,,0.00,meteohub,2013-02-21 16:22:00,
2013-02-21 08:27:00,48.0,39.0,30.12,NNE,27,3.0,5.0,71,0.00,,,0.00,meteohub,2013-02-21 16:27:00,
2013-02-21 08:32:00,48.0,39.0,30.12,North,354,0.0,4.0,71,0.00,,,0.00,meteohub,2013-02-21 16:32:00,
2013-02-21 08:37:00,48.4,39.0,30.13,ENE,71,2.0,5.0,70,0.00,,,0.00,meteohub,2013-02-21 16:37:00,
2013-02-21 08:42:00,48.7,39.4,30.13,ENE,68,1.0,5.0,70,0.00,,,0.00,meteohub,2013-02-21 16:42:00,
2013-02-21 08:47:00,48.9,38.8,30.13,East,86,2.0,4.0,68,0.00,,,0.00,meteohub,2013-02-21 16:47:00,
2013-02-21 08:52:00,48.9,38.8,30.13,NNW,340,1.0,6.0,68,0.00,,,0.00,meteohub,2013-02-21 16:52:00,
2013-02-21 08:57:00,49.1,38.7,30.13,North,359,4.0,6.0,67,0.00,,,0.00,meteohub,2013-02-21 16:57:00,
2013-02-21 09:02:00,49.3,38.5,30.13,NNW,335,1.0,6.0,66,0.00,,,0.00,meteohub,2013-02-21 17:02:00,
2013-02-21 09:07:00,49.6,38.3,30.13,East,91,0.0,6.0,65,0.00,,,0.00,meteohub,2013-02-21 17:07:00,
2013-02-21 09:12:00,50.2,38.5,30.13,NNE,12,2.0,5.0,64,0.00,,,0.00,meteohub,2013-02-21 17:12:00,
2013-02-21 09:17:00,50.5,38.8,30.13,ESE,107,1.0,4.0,64,0.00,,,0.00,meteohub,2013-02-21 17:17:00,
2013-02-21 09:22:00,50.7,38.7,30.14,ENE,63,0.0,4.0,63,0.00,,,0.00,meteohub,2013-02-21 17:22:00,
2013-02-21 09:27:00,51.1,37.8,30.14,NNW,335,2.0,4.0,60,0.00,,,0.00,meteohub,2013-02-21 17:27:00,
2013-02-21 09:32:00,51.4,37.9,30.14,NE,54,2.0,4.0,60,0.00,,,0.00,meteohub,2013-02-21 17:32:00,
2013-02-21 09:37:00,51.6,38.7,30.14,NNE,27,3.0,4.0,61,0.00,,,0.00,meteohub,2013-02-21 17:37:00,
2013-02-21 09:42:00,51.8,38.3,30.14,East,101,4.0,5.0,60,0.00,,,0.00,meteohub,2013-02-21 17:42:00,
2013-02-21 09:48:00,52.0,38.1,30.14,WNW,285,1.0,5.0,59,0.00,,,0.00,meteohub,2013-02-21 17:48:00,
2013-02-21 09:53:00,52.3,38.8,30.15,ENE,75,1.0,5.0,60,0.00,,,0.00,meteohub,2013-02-21 17:53:00,
2013-02-21 09:58:00,52.5,38.1,30.15,SSE,158,1.0,4.0,58,0.00,,,0.00,meteohub,2013-02-21 17:58:00,
2013-02-21 10:03:00,52.9,39.0,30.15,East,83,3.0,4.0,59,0.00,,,0.00,meteohub,2013-02-21 18:03:00,
2013-02-21 10:08:00,53.1,37.8,30.15,SE,124,1.0,5.0,56,0.00,,,0.00,meteohub,2013-02-21 18:08:00,
2013-02-21 10:13:00,53.1,38.3,30.15,NNE,23,2.0,5.0,57,0.00,,,0.00,meteohub,2013-02-21 18:13:00,
2013-02-21 10:18:00,53.4,37.6,30.16,ENE,74,2.0,5.0,55,0.00,,,0.00,meteohub,2013-02-21 18:18:00,
2013-02-21 10:24:00,53.6,37.8,30.16,ESE,105,1.0,4.0,55,0.00,,,0.00,meteohub,2013-02-21 18:24:00,
2013-02-21 10:29:00,54.0,37.2,30.16,ESE,108,2.0,4.0,53,0.00,,,0.00,meteohub,2013-02-21 18:29:00,
2013-02-21 10:34:00,53.6,36.3,30.16,NE,47,2.0,6.0,52,0.00,,,0.00,meteohub,2013-02-21 18:34:00,
2013-02-21 10:39:00,53.6,35.4,30.16,North,5,4.0,7.0,50,0.00,,,0.00,meteohub,2013-02-21 18:39:00,
2013-02-21 10:44:00,53.4,35.8,30.16,East,89,2.0,7.0,51,0.00,,,0.00,meteohub,2013-02-21 18:44:00,
2013-02-21 10:50:00,53.4,35.8,30.16,North,9,5.0,11.0,51,0.00,,,0.00,meteohub,2013-02-21 18:50:00,
2013-02-21 10:55:00,53.2,35.6,30.16,North,354,8.0,11.0,51,0.00,,,0.00,meteohub,2013-02-21 18:55:00,
2013-02-21 11:00:00,53.4,36.7,30.17,North,8,7.0,11.0,53,0.00,,,0.00,meteohub,2013-02-21 19:00:00,
2013-02-21 11:05:00,53.4,36.7,30.16,NNE,31,4.0,11.0,53,0.00,,,0.00,meteohub,2013-02-21 19:05:00,
2013-02-21 11:10:00,54.0,36.3,30.16,NNE,16,6.0,10.0,51,0.00,,,0.00,meteohub,2013-02-21 19:10:00,
2013-02-21 11:15:00,54.0,36.7,30.16,ENE,78,4.0,10.0,52,0.00,,,0.00,meteohub,2013-02-21 19:15:00,
2013-02-21 11:20:00,54.0,36.7,30.16,NE,48,2.0,10.0,52,0.00,,,0.00,meteohub,2013-02-21 19:20:00,
2013-02-21 11:25:00,54.1,36.3,30.16,NW,305,1.0,7.0,51,0.00,,,0.00,meteohub,2013-02-21 19:25:00,
2013-02-21 11:30:00,55.2,37.4,30.16,ENE,77,2.0,7.0,51,0.00,,,0.00,meteohub,2013-02-21 19:30:00,
2013-02-21 11:36:00,55.6,37.2,30.16,North,6,2.0,5.0,50,0.00,,,0.00,meteohub,2013-02-21 19:36:00,
2013-02-21 11:41:00,55.4,36.5,30.16,NW,310,2.0,6.0,49,0.00,,,0.00,meteohub,2013-02-21 19:41:00,
2013-02-21 11:46:00,55.8,36.9,30.15,NNE,20,1.0,6.0,49,0.00,,,0.00,meteohub,2013-02-21 19:46:00,
2013-02-21 11:51:00,56.5,36.5,30.15,East,84,1.0,6.0,47,0.00,,,0.00,meteohub,2013-02-21 19:51:00,
2013-02-21 11:56:00,56.7,36.1,30.15,NE,51,1.0,4.0,46,0.00,,,0.00,meteohub,2013-02-21 19:56:00,
2013-02-21 12:01:00,56.3,36.3,30.15,NNW,332,1.0,5.0,47,0.00,,,0.00,meteohub,2013-02-21 20:01:00,
2013-02-21 12:07:00,56.5,36.5,30.15,NW,320,1.0,5.0,47,0.00,,,0.00,meteohub,2013-02-21 20:07:00,
2013-02-21 12:12:00,56.5,36.0,30.15,NNW,342,3.0,6.0,46,0.00,,,0.00,meteohub,2013-02-21 20:12:00,
2013-02-21 12:17:00,56.8,35.2,30.15,NNE,33,1.0,6.0,44,0.00,,,0.00,meteohub,2013-02-21 20:17:00,
2013-02-21 12:22:00,57.6,35.2,30.14,NNW,342,3.0,6.0,43,0.00,,,0.00,meteohub,2013-02-21 20:22:00,
2013-02-21 12:27:00,57.2,37.8,30.14,East,84,1.0,8.0,48,0.00,,,0.00,meteohub,2013-02-21 20:27:00,
2013-02-21 12:32:00,57.6,35.8,30.14,NNW,328,4.0,8.0,44,0.00,,,0.00,meteohub,2013-02-21 20:32:00,
2013-02-21 12:37:00,57.9,36.7,30.14,West,277,4.0,8.0,45,0.00,,,0.00,meteohub,2013-02-21 20:37:00,
2013-02-21 12:42:00,57.4,40.8,30.14,WNW,288,3.0,8.0,54,0.00,,,0.00,meteohub,2013-02-21 20:42:00,
2013-02-21 12:54:00,56.8,39.9,30.13,North,349,4.0,8.0,53,0.00,,,0.00,meteohub,2013-02-21 20:54:00,
2013-02-21 12:59:00,57.2,40.3,30.13,NW,304,2.0,6.0,53,0.00,,,0.00,meteohub,2013-02-21 20:59:00,
2013-02-21 13:04:00,56.7,39.7,30.13,NNW,340,4.0,10.0,53,0.00,,,0.00,meteohub,2013-02-21 21:04:00,
2013-02-21 13:09:00,56.3,40.8,30.13,North,4,5.0,11.0,56,0.00,,,0.00,meteohub,2013-02-21 21:09:00,
2013-02-21 13:14:00,56.5,40.5,30.13,NE,37,3.0,11.0,55,0.00,,,0.00,meteohub,2013-02-21 21:14:00,
2013-02-21 13:19:00,57.0,41.0,30.13,NNW,334,3.0,11.0,55,0.00,,,0.00,meteohub,2013-02-21 21:19:00,
2013-02-21 13:25:00,56.3,42.6,30.13,NNW,332,5.0,11.0,60,0.00,,,0.00,meteohub,2013-02-21 21:25:00,
2013-02-21 13:30:00,56.1,42.8,30.13,NNE,17,6.0,12.0,61,0.00,,,0.00,meteohub,2013-02-21 21:30:00,
2013-02-21 13:35:00,56.5,41.4,30.12,NNE,19,4.0,12.0,57,0.00,,,0.00,meteohub,2013-02-21 21:35:00,
2013-02-21 13:40:00,56.8,41.4,30.12,NNE,26,7.0,11.0,56,0.00,,,0.00,meteohub,2013-02-21 21:40:00,
2013-02-21 13:45:00,56.7,43.0,30.13,WNW,283,3.0,13.0,60,0.00,,,0.00,meteohub,2013-02-21 21:45:00,
2013-02-21 13:50:00,55.8,43.3,30.13,North,1,4.0,13.0,63,0.00,,,0.00,meteohub,2013-02-21 21:50:00,
2013-02-21 13:55:00,55.6,42.8,30.13,North,352,3.0,13.0,62,0.00,,,0.00,meteohub,2013-02-21 21:55:00,
2013-02-21 14:01:00,56.7,42.1,30.12,North,350,5.0,13.0,58,0.00,,,0.00,meteohub,2013-02-21 22:01:00,
2013-02-21 14:06:00,57.6,40.6,30.12,NNE,26,7.0,11.0,53,0.00,,,0.00,meteohub,2013-02-21 22:06:00,
2013-02-21 14:11:00,57.2,42.1,30.12,NNE,30,3.0,12.0,57,0.00,,,0.00,meteohub,2013-02-21 22:11:00,
2013-02-21 14:16:00,57.0,42.4,30.12,WNW,302,2.0,12.0,58,0.00,,,0.00,meteohub,2013-02-21 22:16:00,
2013-02-21 14:21:00,57.2,42.6,30.12,West,274,5.0,12.0,58,0.00,,,0.00,meteohub,2013-02-21 22:21:00,
2013-02-21 14:26:00,57.4,42.8,30.11,NNE,19,3.0,8.0,58,0.00,,,0.00,meteohub,2013-02-21 22:26:00,
2013-02-21 14:31:00,57.4,42.8,30.12,NNE,12,10.0,10.0,58,0.00,,,0.00,meteohub,2013-02-21 22:31:00,
2013-02-21 14:36:00,57.2,42.1,30.11,North,352,3.0,12.0,57,0.00,,,0.00,meteohub,2013-02-21 22:36:00,
2013-02-21 14:42:00,56.8,42.3,30.11,NW,316,4.0,12.0,58,0.00,,,0.00,meteohub,2013-02-21 22:42:00,
2013-02-21 14:47:00,56.8,42.6,30.11,WSW,252,6.0,15.0,59,0.00,,,0.00,meteohub,2013-02-21 22:47:00,
2013-02-21 14:52:00,56.5,43.2,30.11,NNE,32,5.0,15.0,61,0.00,,,0.00,meteohub,2013-02-21 22:52:00,
2013-02-21 14:57:00,56.5,43.2,30.11,North,6,5.0,15.0,61,0.00,,,0.00,meteohub,2013-02-21 22:57:00,
2013-02-21 15:02:00,57.0,42.4,30.11,NNW,338,3.0,15.0,58,0.00,,,0.00,meteohub,2013-02-21 23:02:00,
2013-02-21 15:07:00,56.7,41.5,30.11,NNW,332,8.0,15.0,57,0.00,,,0.00,meteohub,2013-02-21 23:07:00,
2013-02-21 15:12:00,56.3,42.6,30.11,North,350,10.0,19.0,60,0.00,,,0.00,meteohub,2013-02-21 23:12:00,
2013-02-21 15:17:00,55.9,43.2,30.11,North,6,6.0,19.0,62,0.00,,,0.00,meteohub,2013-02-21 23:17:00,
2013-02-21 15:22:00,55.9,43.5,30.11,NW,309,5.0,19.0,63,0.00,,,0.00,meteohub,2013-02-21 23:22:00,
2013-02-21 15:27:00,55.6,43.2,30.11,WNW,297,6.0,17.0,63,0.00,,,0.00,meteohub,2013-02-21 23:27:00,
2013-02-21 15:32:00,55.9,41.9,30.11,North,350,13.0,17.0,59,0.00,,,0.00,meteohub,2013-02-21 23:32:00,
2013-02-21 15:37:00,56.1,41.2,30.10,NNW,345,6.0,17.0,57,0.00,,,0.00,meteohub,2013-02-21 23:37:00,
2013-02-21 15:42:00,56.5,41.9,30.10,North,5,7.0,13.0,58,0.00,,,0.00,meteohub,2013-02-21 23:42:00,
2013-02-21 15:47:00,55.8,43.0,30.10,NW,321,6.0,13.0,62,0.00,,,0.00,meteohub,2013-02-21 23:47:00,
2013-02-21 15:52:00,55.6,43.2,30.10,North,5,5.0,14.0,63,0.00,,,0.00,meteohub,2013-02-21 23:52:00,
2013-02-21 15:57:00,55.4,43.0,30.10,North,358,8.0,14.0,63,0.00,,,0.00,meteohub,2013-02-21 23:57:00,
2013-02-21 16:02:00,55.0,43.5,30.09,NNE,25,6.0,12.0,65,0.00,,,0.00,meteohub,2013-02-22 00:02:00,
2013-02-21 16:07:00,54.9,43.3,30.10,North,352,5.0,14.0,65,0.00,,,0.00,meteohub,2013-02-22 00:07:00,
2013-02-21 16:12:00,54.9,43.7,30.09,NW,325,7.0,14.0,66,0.00,,,0.00,meteohub,2013-02-22 00:12:00,
2013-02-21 16:17:00,54.7,43.5,30.10,NNE,19,4.0,14.0,66,0.00,,,0.00,meteohub,2013-02-22 00:17:00,
2013-02-21 16:22:00,54.5,43.3,30.10,NNE,19,4.0,13.0,66,0.00,,,0.00,meteohub,2013-02-22 00:22:00,
2013-02-21 16:27:00,54.1,43.9,30.10,NW,318,4.0,13.0,68,0.00,,,0.00,meteohub,2013-02-22 00:27:00,
2013-02-21 16:32:00,53.8,43.9,30.10,North,4,4.0,12.0,69,0.00,,,0.00,meteohub,2013-02-22 00:32:00,
2013-02-21 16:37:00,53.6,43.7,30.10,North,11,4.0,13.0,69,0.00,,,0.00,meteohub,2013-02-22 00:37:00,
2013-02-21 16:42:00,53.6,43.7,30.10,NNW,328,3.0,13.0,69,0.00,,,0.00,meteohub,2013-02-22 00:42:00,
2013-02-21 16:47:00,54.0,44.1,30.10,North,349,2.0,9.0,69,0.00,,,0.00,meteohub,2013-02-22 00:47:00,
2013-02-21 16:52:00,54.0,43.7,30.10,North,9,8.0,9.0,68,0.00,,,0.00,meteohub,2013-02-22 00:52:00,
2013-02-21 16:57:00,53.4,43.5,30.10,NNE,22,3.0,10.0,69,0.00,,,0.00,meteohub,2013-02-22 00:57:00,
2013-02-21 17:02:00,53.2,43.3,30.10,NNW,333,4.0,13.0,69,0.00,,,0.00,meteohub,2013-02-22 01:02:00,
2013-02-21 17:07:00,53.1,43.5,30.11,NNE,15,3.0,13.0,70,0.00,,,0.00,meteohub,2013-02-22 01:07:00,
2013-02-21 17:12:00,52.5,43.3,30.11,NE,45,2.0,10.0,71,0.00,,,0.00,meteohub,2013-02-22 01:12:00,
2013-02-21 17:17:00,52.3,43.5,30.11,North,350,2.0,10.0,72,0.00,,,0.00,meteohub,2013-02-22 01:17:00,
2013-02-21 17:22:00,52.2,43.3,30.11,NW,305,2.0,9.0,72,0.00,,,0.00,meteohub,2013-02-22 01:22:00,
2013-02-21 17:27:00,52.0,43.5,30.11,NE,34,1.0,8.0,73,0.00,,,0.00,meteohub,2013-02-22 01:27:00,
2013-02-21 17:32:00,51.8,43.0,30.11,North,358,2.0,8.0,72,0.00,,,0.00,meteohub,2013-02-22 01:32:00,
2013-02-21 17:37:00,51.6,43.3,30.11,NNW,338,3.0,7.0,73,0.00,,,0.00,meteohub,2013-02-22 01:37:00,
2013-02-21 17:42:00,51.6,43.3,30.11,NNW,338,3.0,8.0,73,0.00,,,0.00,meteohub,2013-02-22 01:42:00,
2013-02-21 17:47:00,51.4,42.8,30.11,NNE,26,3.0,8.0,72,0.00,,,0.00,meteohub,2013-02-22 01:47:00,
2013-02-21 17:52:00,51.4,43.2,30.11,NNE,33,1.0,8.0,73,0.00,,,0.00,meteohub,2013-02-22 01:52:00,
2013-02-21 17:57:00,51.3,43.0,30.11,NNE,13,6.0,7.0,73,0.00,,,0.00,meteohub,2013-02-22 01:57:00,
2013-02-21 18:03:00,51.3,43.0,30.11,North,11,6.0,11.0,73,0.00,,,0.00,meteohub,2013-02-22 02:03:00,
2013-02-21 18:08:00,51.1,42.8,30.11,NNE,22,3.0,11.0,73,0.00,,,0.00,meteohub,2013-02-22 02:08:00,
2013-02-21 18:13:00,50.9,42.3,30.11,NNW,333,1.0,11.0,72,0.00,,,0.00,meteohub,2013-02-22 02:13:00,
2013-02-21 18:18:00,50.7,42.1,30.11,WNW,286,2.0,8.0,72,0.00,,,0.00,meteohub,2013-02-22 02:18:00,
2013-02-21 18:23:00,50.7,41.7,30.11,WNW,300,3.0,6.0,71,0.00,,,0.00,meteohub,2013-02-22 02:23:00,
2013-02-21 18:28:00,50.7,41.7,30.11,NNE,29,4.0,7.0,71,0.00,,,0.00,meteohub,2013-02-22 02:28:00,
2013-02-21 18:33:00,50.5,41.5,30.11,NNW,343,3.0,8.0,71,0.00,,,0.00,meteohub,2013-02-22 02:33:00,
2013-02-21 18:38:00,50.5,41.5,30.11,ENE,75,0.0,8.0,71,0.00,,,0.00,meteohub,2013-02-22 02:38:00,
2013-02-21 18:44:00,50.4,41.7,30.12,SE,145,0.0,6.0,72,0.00,,,0.00,meteohub,2013-02-22 02:44:00,
2013-02-21 18:49:00,50.2,41.2,30.12,NNE,30,0.0,6.0,71,0.00,,,0.00,meteohub,2013-02-22 02:49:00,
2013-02-21 18:54:00,50.0,41.4,30.12,SSW,198,0.0,4.0,72,0.00,,,0.00,meteohub,2013-02-22 02:54:00,
2013-02-21 18:59:00,49.6,41.4,30.12,SSW,213,1.0,3.0,73,0.00,,,0.00,meteohub,2013-02-22 02:59:00,
2013-02-21 19:04:00,49.5,41.9,30.12,NNW,338,0.0,1.0,75,0.00,,,0.00,meteohub,2013-02-22 03:04:00,
2013-02-21 19:09:00,49.5,42.3,30.12,NW,311,0.0,4.0,76,0.00,,,0.00,meteohub,2013-02-22 03:09:00,
2013-02-21 19:14:00,49.5,42.3,30.12,NNW,338,1.0,4.0,76,0.00,,,0.00,meteohub,2013-02-22 03:14:00,
2013-02-21 19:19:00,49.5,42.3,30.12,WNW,293,0.0,4.0,76,0.00,,,0.00,meteohub,2013-02-22 03:19:00,
2013-02-21 19:24:00,49.3,42.1,30.13,WNW,287,0.0,4.0,76,0.00,,,0.00,meteohub,2013-02-22 03:24:00,
2013-02-21 19:29:00,48.9,41.7,30.13,NW,304,2.0,3.0,76,0.00,,,0.00,meteohub,2013-02-22 03:29:00,
2013-02-21 19:35:00,48.9,41.7,30.13,WNW,300,1.0,3.0,76,0.00,,,0.00,meteohub,2013-02-22 03:35:00,
2013-02-21 19:40:00,48.9,41.7,30.13,North,1,1.0,3.0,76,0.00,,,0.00,meteohub,2013-02-22 03:40:00,
2013-02-21 19:45:00,48.7,41.5,30.13,NW,325,0.0,3.0,76,0.00,,,0.00,meteohub,2013-02-22 03:45:00,
2013-02-21 19:50:00,48.6,41.7,30.13,ENE,67,0.0,2.0,77,0.00,,,0.00,meteohub,2013-02-22 03:50:00,
2013-02-21 19:55:00,48.4,41.5,30.13,SW,214,1.0,1.0,77,0.00,,,0.00,meteohub,2013-02-22 03:55:00,
2013-02-21 20:00:00,48.4,41.9,30.13,SW,221,1.0,3.0,78,0.00,,,0.00,meteohub,2013-02-22 04:00:00,
2013-02-21 20:05:00,48.6,42.1,30.13,NE,49,0.0,3.0,78,0.00,,,0.00,meteohub,2013-02-22 04:05:00,
2013-02-21 20:10:00,48.6,42.3,30.13,NNW,346,1.0,3.0,79,0.00,,,0.00,meteohub,2013-02-22 04:10:00,
2013-02-21 20:15:00,48.6,42.3,30.13,NNW,330,0.0,3.0,79,0.00,,,0.00,meteohub,2013-02-22 04:15:00,
2013-02-21 20:20:00,48.4,42.3,30.13,NNE,26,0.0,2.0,79,0.00,,,0.00,meteohub,2013-02-22 04:20:00,
2013-02-21 20:26:00,48.4,42.4,30.13,NNW,347,1.0,2.0,80,0.00,,,0.00,meteohub,2013-02-22 04:26:00,
2013-02-21 20:31:00,48.2,42.3,30.13,West,271,0.0,2.0,80,0.00,,,0.00,meteohub,2013-02-22 04:31:00,
2013-02-21 20:36:00,48.0,42.4,30.13,NNW,330,0.0,2.0,81,0.00,,,0.00,meteohub,2013-02-22 04:36:00,
2013-02-21 20:41:00,47.8,42.3,30.13,East,94,0.0,2.0,81,0.00,,,0.00,meteohub,2013-02-22 04:41:00,
2013-02-21 20:46:00,47.8,42.6,30.13,NNW,332,1.0,2.0,82,0.00,,,0.00,meteohub,2013-02-22 04:46:00,
2013-02-21 20:51:00,47.8,42.6,30.13,NW,319,0.0,2.0,82,0.00,,,0.00,meteohub,2013-02-22 04:51:00,
2013-02-21 20:56:00,47.5,42.3,30.14,NW,319,0.0,2.0,82,0.00,,,0.00,meteohub,2013-02-22 04:56:00,
2013-02-21 21:00:00,47.3,42.4,30.14,NW,319,0.0,2.0,83,0.00,,,0.00,meteohub,2013-02-22 05:00:00,
2013-02-21 21:01:00,47.1,42.3,30.14,NW,319,0.0,2.0,83,0.00,,,0.00,meteohub,2013-02-22 05:01:00,
2013-02-21 21:02:00,47.1,42.3,30.14,NW,319,0.0,2.0,83,0.00,,,0.00,meteohub,2013-02-22 05:02:00,
2013-02-21 21:07:00,46.8,41.9,30.14,NW,319,0.0,1.0,83,0.00,,,0.00,meteohub,2013-02-22 05:07:00,
2013-02-21 21:12:00,46.4,41.9,30.14,NW,319,0.0,0.0,84,0.00,,,0.00,meteohub,2013-02-22 05:12:00,
2013-02-21 21:17:00,46.2,41.9,30.14,NW,319,0.0,0.0,85,0.00,,,0.00,meteohub,2013-02-22 05:17:00,
2013-02-21 21:22:00,46.2,41.9,30.15,NW,319,0.0,1.0,85,0.00,,,0.00,meteohub,2013-02-22 05:22:00,
2013-02-21 21:27:00,46.2,41.9,30.15,NW,319,0.0,1.0,85,0.00,,,0.00,meteohub,2013-02-22 05:27:00,
2013-02-21 21:33:00,45.9,41.5,30.15,NW,319,0.0,1.0,85,0.00,,,0.00,meteohub,2013-02-22 05:33:00,
2013-02-21 21:38:00,45.7,41.4,30.15,NW,323,0.0,1.0,85,0.00,,,0.00,meteohub,2013-02-22 05:38:00,
2013-02-21 21:43:00,45.1,40.8,30.15,NW,323,0.0,1.0,85,0.00,,,0.00,meteohub,2013-02-22 05:43:00,
2013-02-21 21:48:00,45.1,41.2,30.15,NW,323,0.0,1.0,86,0.00,,,0.00,meteohub,2013-02-22 05:48:00,
2013-02-21 21:53:00,45.1,41.2,30.15,NW,323,0.0,1.0,86,0.00,,,0.00,meteohub,2013-02-22 05:53:00,
2013-02-21 21:58:00,45.0,41.0,30.15,North,352,0.0,1.0,86,0.00,,,0.00,meteohub,2013-02-22 05:58:00,
2013-02-21 22:03:00,45.0,41.4,30.15,NW,321,0.0,2.0,87,0.00,,,0.00,meteohub,2013-02-22 06:03:00,
2013-02-21 22:08:00,45.0,41.0,30.16,NW,324,0.0,2.0,86,0.00,,,0.00,meteohub,2013-02-22 06:08:00,
2013-02-21 22:13:00,44.8,40.8,30.16,NW,324,0.0,2.0,86,0.00,,,0.00,meteohub,2013-02-22 06:13:00,
2013-02-21 22:18:00,45.0,41.0,30.16,NNW,331,0.0,1.0,86,0.00,,,0.00,meteohub,2013-02-22 06:18:00,
2013-02-21 22:24:00,45.0,41.0,30.16,WNW,297,0.0,1.0,86,0.00,,,0.00,meteohub,2013-02-22 06:24:00,
2013-02-21 22:29:00,45.0,40.6,30.16,WNW,298,0.0,1.0,85,0.00,,,0.00,meteohub,2013-02-22 06:29:00,
2013-02-21 22:34:00,44.8,40.5,30.16,WNW,297,0.0,1.0,85,0.00,,,0.00,meteohub,2013-02-22 06:34:00,
2013-02-21 22:39:00,44.8,40.5,30.16,WNW,297,1.0,1.0,85,0.00,,,0.00,meteohub,2013-02-22 06:39:00,
2013-02-21 22:44:00,44.8,40.8,30.16,NW,309,1.0,1.0,86,0.00,,,0.00,meteohub,2013-02-22 06:44:00,
2013-02-21 22:49:00,44.8,40.5,30.17,NW,309,0.0,2.0,85,0.00,,,0.00,meteohub,2013-02-22 06:49:00,
2013-02-21 22:54:00,44.6,40.5,30.17,NW,309,0.0,2.0,85,0.00,,,0.00,meteohub,2013-02-22 06:54:00,
2013-02-21 22:59:00,44.4,40.5,30.16,NW,306,0.0,2.0,86,0.00,,,0.00,meteohub,2013-02-22 06:59:00,
2013-02-21 23:04:00,44.6,40.5,30.16,NW,307,0.0,1.0,85,0.00,,,0.00,meteohub,2013-02-22 07:04:00,
2013-02-21 23:09:00,44.4,40.3,30.16,NW,307,0.0,1.0,85,0.00,,,0.00,meteohub,2013-02-22 07:09:00,
2013-02-21 23:15:00,44.4,40.3,30.16,NW,307,0.0,1.0,85,0.00,,,0.00,meteohub,2013-02-22 07:15:00,
2013-02-21 23:20:00,44.2,40.1,30.16,NW,324,0.0,0.0,85,0.00,,,0.00,meteohub,2013-02-22 07:20:00,
2013-02-21 23:25:00,44.2,40.1,30.16,NW,310,1.0,1.0,85,0.00,,,0.00,meteohub,2013-02-22 07:25:00,
2013-02-21 23:30:00,44.2,40.1,30.16,NW,314,0.0,2.0,85,0.00,,,0.00,meteohub,2013-02-22 07:30:00,
2013-02-21 23:35:00,44.1,39.9,30.16,NW,314,0.0,2.0,85,0.00,,,0.00,meteohub,2013-02-22 07:35:00,
2013-02-21 23:40:00,44.1,39.9,30.16,NW,314,0.0,1.0,85,0.00,,,0.00,meteohub,2013-02-22 07:40:00,
2013-02-21 23:45:00,43.7,39.6,30.16,NW,314,0.0,0.0,85,0.00,,,0.00,meteohub,2013-02-22 07:45:00,
2013-02-21 23:50:00,43.3,39.4,30.16,NW,314,0.0,0.0,86,0.00,,,0.00,meteohub,2013-02-22 07:50:00,
2013-02-21 23:55:00,43.3,39.7,30.17,NW,307,0.0,1.0,87,0.00,,,0.00,meteohub,2013-02-22 07:55:00,